createdAt,value
2018-09-04T00:00:33.512Z,55.60
2018-09-04T00:03:00.620Z,55.50
2018-09-04T00:05:27.796Z,56.30
2018-09-04T00:08:09.717Z,55.40
2018-09-04T00:10:36.805Z,57.77
2018-09-04T00:13:03.921Z,64.07
2018-09-04T00:15:31.032Z,62.10
2018-09-04T00:17:58.185Z,59.85
2018-09-04T00:20:25.296Z,65.20
2018-09-04T00:22:52.387Z,66.33
2018-09-04T00:25:19.517Z,63.83
2018-09-04T00:35:07.561Z,67.70
2018-09-04T00:37:34.690Z,66.80
2018-09-04T00:42:28.492Z,65.45
2018-09-04T00:44:55.622Z,69.90
2018-09-04T00:49:49.364Z,71.00
2018-09-04T00:52:16.463Z,69.33
2018-09-04T00:54:43.556Z,74.00
2018-09-04T00:57:10.660Z,65.20
2018-09-04T00:59:37.765Z,65.43
2018-09-04T01:02:04.892Z,69.30
2018-09-04T01:04:32.012Z,68.37
2018-09-04T01:06:59.216Z,70.97
2018-09-04T01:09:26.328Z,64.93
2018-09-04T01:11:53.416Z,64.40
2018-09-04T01:14:20.532Z,77.07
2018-09-04T01:16:47.632Z,75.43
2018-09-04T01:19:14.736Z,75.70
2018-09-04T01:21:41.844Z,70.20
2018-09-04T01:24:09.609Z,67.97
2018-09-04T01:26:36.704Z,76.70
2018-09-04T01:29:04.611Z,78.17
2018-09-04T01:31:31.828Z,70.83
2018-09-04T01:33:59.384Z,62.93
2018-09-04T01:36:26.476Z,66.80
2018-09-04T01:38:53.605Z,70.70
2018-09-04T01:41:20.688Z,67.27
2018-09-04T01:43:47.777Z,70.43
2018-09-04T01:46:14.872Z,75.17
2018-09-04T01:48:41.980Z,80.77
2018-09-04T01:51:09.072Z,80.17
2018-09-04T01:53:36.177Z,64.90
2018-09-04T01:56:03.301Z,71.53
2018-09-04T01:58:30.376Z,80.60
2018-09-04T02:00:57.496Z,81.05
2018-09-04T02:03:24.603Z,76.57
2018-09-04T02:05:51.714Z,73.03
2018-09-04T02:08:18.798Z,83.13
2018-09-04T02:10:45.900Z,83.17
2018-09-04T02:13:13.120Z,77.70
2018-09-04T02:15:40.241Z,77.67
2018-09-04T02:18:07.380Z,89.10
2018-09-04T02:20:34.490Z,87.27
2018-09-04T02:23:01.612Z,77.57
2018-09-04T02:25:28.724Z,89.17
2018-09-04T02:27:55.825Z,94.85
2018-09-04T02:30:22.944Z,80.20
2018-09-04T02:32:50.029Z,87.93
2018-09-04T02:35:17.122Z,80.80
2018-09-04T02:37:44.216Z,90.30
2018-09-04T02:40:11.312Z,84.10
2018-09-04T02:42:38.400Z,93.80
2018-09-04T02:45:05.520Z,98.50
2018-09-04T02:47:32.616Z,94.73
2018-09-04T02:49:59.715Z,92.50
2018-09-04T02:54:53.452Z,78.00
2018-09-04T02:57:20.599Z,71.70
2018-09-04T02:59:47.670Z,84.85
2018-09-04T03:02:14.772Z,90.10
2018-09-04T03:04:41.852Z,71.20
2018-09-04T03:07:08.948Z,85.00
2018-09-04T03:09:36.049Z,87.30
2018-09-04T03:12:03.167Z,92.70
2018-09-04T03:14:30.265Z,83.40
2018-09-04T03:16:57.352Z,89.30
2018-09-04T03:19:24.437Z,95.30
2018-09-04T03:21:51.579Z,75.20
2018-09-04T03:24:18.665Z,75.60
2018-09-04T03:26:45.768Z,85.55
2018-09-04T03:29:12.876Z,74.10
2018-09-04T03:31:39.980Z,77.90
2018-09-04T03:34:07.085Z,100.10
2018-09-04T03:36:34.217Z,85.37
2018-09-04T03:39:01.511Z,84.37
2018-09-04T03:41:28.613Z,98.33
2018-09-04T03:43:55.709Z,87.57
2018-09-04T03:46:22.809Z,103.33
2018-09-04T03:48:50.003Z,80.53
2018-09-04T03:51:17.112Z,100.57
2018-09-04T03:53:44.217Z,88.50
2018-09-04T03:56:11.334Z,79.27
2018-09-04T03:58:38.424Z,75.67
2018-09-04T04:01:05.557Z,88.00
2018-09-04T04:03:32.712Z,79.33
2018-09-04T04:05:59.835Z,96.93
2018-09-04T04:08:26.937Z,104.47
2018-09-04T04:10:54.033Z,83.37
2018-09-04T04:13:21.124Z,119.10
2018-09-04T04:15:48.213Z,81.57
2018-09-04T04:18:15.306Z,86.57
2018-09-04T04:20:50.041Z,89.23
2018-09-04T04:23:17.144Z,83.40
2018-09-04T04:25:44.257Z,91.67
2018-09-04T04:28:11.362Z,84.83
2018-09-04T04:30:38.446Z,85.03
2018-09-04T04:33:05.600Z,107.10
2018-09-04T04:35:32.709Z,110.37
2018-09-04T04:37:59.800Z,104.63
2018-09-04T04:40:26.896Z,114.03
2018-09-04T04:42:53.994Z,91.27
2018-09-04T04:45:21.090Z,101.13
2018-09-04T04:47:48.522Z,122.93
2018-09-04T04:50:16.236Z,117.53
2018-09-04T04:52:43.346Z,103.00
2018-09-04T04:55:10.457Z,100.75
2018-09-04T04:57:37.589Z,104.60
2018-09-04T05:00:05.236Z,94.57
2018-09-04T05:02:32.336Z,93.10
2018-09-04T05:04:59.424Z,99.10
2018-09-04T05:07:26.536Z,111.57
2018-09-04T05:09:53.660Z,104.70
2018-09-04T05:12:21.861Z,111.23
2018-09-04T05:14:48.961Z,109.33
2018-09-04T05:17:16.102Z,104.23
2018-09-04T05:19:43.204Z,108.00
2018-09-04T05:22:10.288Z,109.23
2018-09-04T05:24:37.384Z,106.30
2018-09-04T05:27:04.506Z,104.67
2018-09-04T05:29:31.649Z,108.17
2018-09-04T05:34:05.973Z,101.13
2018-09-04T05:39:00.167Z,105.87
2018-09-04T05:41:27.277Z,96.80
2018-09-04T05:43:56.273Z,108.07
2018-09-04T05:46:29.026Z,107.93
2018-09-04T05:48:57.048Z,111.07
2018-09-04T05:51:24.178Z,111.47
2018-09-04T05:53:51.312Z,109.07
2018-09-04T05:56:18.442Z,119.30
2018-09-04T05:58:45.546Z,100.17
2018-09-04T06:01:12.682Z,100.97
2018-09-04T06:03:39.888Z,108.80
2018-09-04T06:06:07.003Z,100.10
2018-09-04T06:08:34.109Z,106.70
2018-09-04T06:11:01.229Z,111.77
2018-09-04T06:13:28.328Z,104.17
2018-09-04T06:15:55.462Z,101.03
2018-09-04T06:18:22.574Z,103.93
2018-09-04T06:20:49.701Z,96.13
2018-09-04T06:23:16.897Z,112.03
2018-09-04T06:25:44.025Z,97.63
2018-09-04T06:28:11.129Z,103.00
2018-09-04T06:30:38.341Z,99.70
2018-09-04T06:33:05.473Z,95.90
2018-09-04T06:35:32.601Z,102.80
2018-09-04T06:37:59.678Z,106.60
2018-09-04T06:40:26.790Z,107.53
2018-09-04T06:42:53.903Z,104.10
2018-09-04T06:45:21.008Z,107.90
2018-09-04T06:47:48.153Z,107.80
2018-09-04T06:50:15.361Z,110.20
2018-09-04T06:52:42.736Z,97.30
2018-09-04T06:55:09.862Z,102.57
2018-09-04T06:57:36.960Z,107.40
2018-09-04T07:00:06.190Z,97.77
2018-09-04T07:02:33.297Z,92.10
2018-09-04T07:05:00.405Z,93.63
2018-09-04T07:07:27.509Z,96.60
2018-09-04T07:09:54.608Z,93.30
2018-09-04T07:12:21.712Z,100.67
2018-09-04T07:14:48.864Z,88.73
2018-09-04T07:17:15.968Z,82.63
2018-09-04T07:19:43.073Z,83.63
2018-09-04T07:22:10.192Z,84.57
2018-09-04T07:24:37.312Z,84.57
2018-09-04T07:27:04.453Z,84.90
2018-09-04T07:29:31.556Z,85.23
2018-09-04T07:31:58.669Z,84.10
2018-09-04T07:34:25.771Z,84.47
2018-09-04T07:36:52.896Z,84.43
2018-09-04T07:39:20.016Z,86.17
2018-09-04T07:41:47.154Z,87.53
2018-09-04T07:44:14.275Z,93.33
2018-09-04T07:46:41.388Z,96.07
2018-09-04T07:49:08.482Z,95.00
2018-09-04T08:52:57.305Z,79.10
2018-09-04T08:55:24.463Z,74.93
2018-09-04T08:57:51.593Z,77.03
2018-09-04T09:00:18.704Z,74.20
2018-09-04T09:02:45.809Z,73.10
2018-09-04T09:05:12.918Z,72.97
2018-09-04T09:07:40.369Z,74.07
2018-09-04T09:10:07.545Z,74.53
2018-09-04T09:12:34.625Z,73.33
2018-09-04T09:15:01.757Z,71.60
2018-09-04T09:17:28.855Z,69.77
2018-09-04T09:19:55.961Z,66.70
2018-09-04T09:22:23.061Z,67.80
2018-09-04T09:24:50.172Z,68.87
2018-09-04T09:27:17.304Z,68.17
2018-09-04T09:29:44.425Z,74.20
2018-09-04T09:32:11.537Z,70.40
2018-09-04T09:34:38.630Z,69.87
2018-09-04T09:37:05.846Z,70.07
2018-09-04T09:39:32.901Z,66.80
2018-09-04T09:42:00.284Z,69.33
2018-09-04T09:44:27.378Z,69.83
2018-09-04T09:47:00.793Z,64.70
2018-09-04T09:49:27.997Z,75.93
2018-09-04T09:51:55.109Z,70.80
2018-09-04T09:54:22.270Z,76.23
2018-09-04T09:56:49.332Z,71.77
2018-09-04T09:59:16.445Z,67.17
2018-09-04T10:01:49.197Z,67.40
2018-09-04T10:04:16.330Z,65.60
2018-09-04T10:06:43.407Z,66.67
2018-09-04T10:09:10.525Z,66.90
2018-09-04T10:11:37.669Z,63.80
2018-09-04T10:14:04.855Z,66.87
2018-09-04T10:16:31.969Z,69.20
2018-09-04T10:18:59.146Z,67.50
2018-09-04T10:21:28.402Z,70.13
2018-09-04T10:23:55.685Z,68.47
2018-09-04T10:26:23.214Z,65.83
2018-09-04T10:28:50.465Z,66.03
2018-09-04T10:31:17.592Z,68.60
2018-09-04T10:33:47.624Z,72.07
2018-09-04T10:36:14.824Z,68.87
2018-09-04T10:38:42.150Z,66.63
2018-09-04T10:41:13.438Z,67.77
2018-09-04T10:43:40.584Z,62.93
2018-09-04T10:46:09.229Z,67.03
2018-09-04T10:48:36.429Z,62.80
2018-09-04T10:51:04.108Z,66.30
2018-09-04T10:53:31.212Z,62.40
2018-09-04T10:55:58.594Z,65.23
2018-09-04T10:58:25.774Z,65.00
2018-09-04T11:00:52.927Z,69.33
2018-09-04T11:03:20.162Z,61.07
2018-09-04T11:05:47.494Z,63.70
2018-09-04T11:08:14.635Z,60.60
2018-09-04T11:10:48.483Z,61.17
2018-09-04T11:13:15.936Z,57.67
2018-09-04T11:15:44.934Z,59.07
2018-09-04T11:18:12.087Z,61.83
2018-09-04T11:20:39.195Z,60.50
2018-09-04T11:23:06.798Z,55.90
2018-09-04T11:25:35.205Z,58.93
2018-09-04T11:28:05.306Z,57.97
2018-09-04T11:30:34.508Z,56.90
2018-09-04T11:33:03.870Z,56.20
2018-09-04T11:35:31.113Z,55.03
2018-09-04T11:37:58.323Z,54.07
2018-09-04T11:40:25.593Z,55.43
2018-09-04T11:42:54.469Z,53.20
2018-09-04T11:45:22.285Z,55.73
2018-09-04T11:47:49.429Z,53.33
2018-09-04T11:50:16.645Z,53.80
2018-09-04T11:52:43.944Z,55.60
2018-09-04T11:55:12.581Z,51.87
2018-09-04T11:57:45.330Z,51.80
2018-09-04T12:00:16.564Z,53.07
2018-09-04T12:02:44.942Z,53.23
2018-09-04T12:05:15.460Z,48.30
2018-09-04T12:07:45.596Z,53.57
2018-09-04T12:10:50.879Z,51.83
2018-09-04T12:13:25.648Z,52.60
2018-09-04T12:15:59.059Z,49.60
2018-09-04T12:18:27.986Z,48.20
2018-09-04T12:21:12.727Z,46.90
2018-09-04T12:23:58.685Z,46.80
2018-09-04T12:26:37.571Z,47.13
2018-09-04T12:32:03.539Z,47.00
2018-09-04T12:34:43.747Z,51.10
2018-09-04T12:37:18.474Z,49.47
2018-09-04T12:40:03.490Z,44.53
2018-09-04T12:42:31.760Z,41.73
2018-09-04T12:45:10.968Z,47.00
2018-09-04T12:47:52.831Z,43.43
2018-09-04T12:50:45.341Z,45.87
2018-09-04T12:53:12.878Z,41.47
2018-09-04T12:55:41.795Z,41.80
2018-09-04T12:58:23.636Z,43.38
2018-09-04T13:00:55.583Z,40.93
2018-09-04T13:03:28.384Z,43.73
2018-09-04T13:09:55.391Z,43.57
2018-09-04T13:12:27.420Z,41.33
2018-09-04T13:14:55.880Z,43.60
2018-09-04T13:17:23.550Z,38.87
2018-09-04T13:19:52.027Z,44.40
2018-09-04T13:22:32.727Z,44.87
2018-09-04T13:25:00.073Z,45.70
2018-09-04T13:27:29.241Z,45.63
2018-09-04T13:29:56.850Z,41.13
2018-09-04T13:32:25.412Z,43.65
2018-09-04T13:47:07.320Z,38.47
2018-09-04T13:49:34.851Z,39.63
2018-09-04T13:52:02.032Z,40.70
2018-09-04T13:54:29.217Z,38.97
2018-09-04T13:56:56.500Z,35.90
2018-09-04T13:59:23.614Z,38.37
2018-09-04T14:01:50.851Z,40.30
2018-09-04T14:04:18.068Z,43.10
2018-09-04T14:06:45.263Z,41.20
2018-09-04T14:09:12.538Z,41.47
2018-09-04T14:11:39.941Z,37.47
2018-09-04T14:14:07.427Z,39.30
2018-09-04T14:16:43.156Z,37.53
2018-09-04T14:19:03.138Z,34.63
2018-09-04T14:21:30.397Z,36.13
2018-09-04T14:26:24.515Z,42.60
2018-09-04T14:41:08.612Z,39.85
2018-09-04T14:43:35.848Z,42.73
2018-09-04T14:46:03.658Z,40.33
2018-09-04T14:48:37.198Z,45.07
2018-09-04T14:51:15.500Z,45.00
2018-09-04T14:53:45.156Z,45.03
2018-09-04T14:56:23.355Z,45.27
2018-09-04T14:58:53.919Z,46.13
2018-09-04T15:01:23.624Z,43.83
2018-09-04T15:03:52.320Z,42.80
2018-09-04T15:06:19.980Z,43.43
2018-09-04T15:08:47.523Z,41.07
2018-09-04T15:11:15.957Z,38.17
2018-09-04T15:13:43.222Z,39.67
2018-09-04T15:16:10.406Z,39.17
2018-09-04T15:18:41.114Z,38.80
2018-09-04T15:21:10.043Z,41.70
2018-09-04T15:23:40.190Z,43.17
2018-09-04T15:26:08.925Z,41.23
2018-09-04T15:28:37.327Z,40.73
2018-09-04T15:31:04.891Z,43.33
2018-09-04T15:33:33.954Z,43.17
2018-09-04T15:36:01.870Z,41.93
2018-09-04T15:38:31.120Z,46.53
2018-09-04T15:41:03.786Z,45.77
2018-09-04T15:43:32.164Z,42.23
2018-09-04T15:46:00.794Z,42.70
2018-09-04T15:48:28.264Z,40.10
2018-09-04T15:51:02.025Z,43.83
2018-09-04T15:53:32.502Z,39.80
2018-09-04T15:56:00.509Z,37.03
2018-09-04T15:58:29.988Z,44.73
2018-09-04T16:01:53.264Z,43.70
2018-09-04T16:17:17.126Z,44.80
2018-09-04T16:19:55.768Z,43.02
2018-09-04T16:22:51.128Z,40.07
2018-09-04T16:25:39.189Z,42.07
2018-09-04T16:30:59.701Z,40.13
2018-09-04T16:33:30.228Z,41.40
2018-09-04T16:36:06.112Z,40.60
2018-09-04T16:38:44.909Z,44.13
2018-09-04T16:43:57.142Z,42.73
2018-09-04T16:46:34.415Z,43.37
2018-09-04T16:49:07.406Z,44.13
2018-09-04T16:51:51.133Z,41.43
2018-09-04T16:54:31.701Z,40.73
2018-09-04T16:57:02.323Z,41.30
2018-09-04T16:59:33.671Z,40.60
2018-09-04T17:02:16.193Z,40.90
2018-09-04T17:04:55.690Z,38.13
2018-09-04T17:07:38.313Z,40.27
2018-09-04T17:10:20.947Z,39.70
2018-09-04T17:12:57.227Z,39.27
2018-09-04T17:18:07.010Z,38.83
2018-09-04T17:20:49.768Z,43.00
2018-09-04T17:23:25.431Z,43.57
2018-09-04T17:26:17.159Z,40.77
2018-09-04T17:28:57.570Z,39.15
2018-09-04T17:31:51.280Z,40.13
2018-09-04T17:34:32.465Z,40.23
2018-09-04T17:36:59.597Z,39.17
2018-09-04T17:39:26.736Z,38.47
2018-09-04T17:41:53.910Z,39.90
2018-09-04T17:44:21.064Z,42.20
2018-09-04T17:46:48.201Z,38.00
2018-09-04T17:49:15.337Z,35.87
2018-09-04T17:51:42.499Z,38.83
2018-09-04T17:54:10.587Z,39.03
2018-09-04T17:56:37.712Z,39.93
2018-09-04T17:59:05.023Z,39.63
2018-09-04T18:01:32.377Z,40.70
2018-09-04T18:03:59.484Z,38.83
2018-09-04T18:06:26.787Z,38.40
2018-09-04T18:08:53.958Z,40.20
2018-09-04T18:11:21.231Z,39.20
2018-09-04T18:13:48.413Z,39.60
2018-09-04T18:16:15.619Z,38.47
2018-09-04T18:18:42.860Z,41.20
2018-09-04T18:21:10.038Z,40.20
2018-09-04T18:23:37.260Z,39.20
2018-09-04T18:26:04.598Z,40.40
2018-09-04T18:28:31.829Z,40.13
2018-09-04T18:30:59.128Z,40.87
2018-09-04T18:33:26.316Z,37.67
2018-09-04T18:35:53.559Z,38.33
2018-09-04T18:38:22.517Z,38.63
2018-09-04T18:40:49.669Z,37.63
2018-09-04T18:43:16.892Z,34.10
2018-09-04T18:45:50.529Z,36.20
2018-09-04T18:48:18.194Z,35.80
2018-09-04T18:50:45.357Z,36.20
2018-09-04T18:53:12.504Z,37.47
2018-09-04T18:55:39.728Z,39.07
2018-09-04T18:58:07.205Z,39.07
2018-09-04T19:00:34.296Z,39.40
2018-09-04T19:03:01.472Z,35.63
2018-09-04T19:05:28.620Z,35.97
2018-09-04T19:07:55.703Z,35.40
2018-09-04T19:10:22.812Z,35.23
2018-09-04T19:12:49.934Z,33.17
2018-09-04T19:15:17.097Z,32.93
2018-09-04T19:17:44.204Z,27.50
2018-09-04T19:20:11.328Z,25.27
2018-09-04T19:22:38.493Z,23.60
2018-09-04T19:25:05.641Z,22.67
2018-09-04T19:27:32.743Z,21.23
2018-09-04T19:29:59.880Z,20.30
2018-09-04T19:32:27.013Z,19.07
2018-09-04T19:34:54.118Z,17.87
2018-09-04T19:37:21.556Z,16.60
2018-09-04T19:39:48.660Z,17.43
2018-09-04T19:42:15.764Z,17.17
2018-09-04T19:44:42.864Z,18.17
2018-09-04T19:47:09.948Z,16.67
2018-09-04T19:49:37.087Z,16.43
2018-09-04T19:52:04.277Z,16.60
2018-09-04T19:54:31.465Z,16.13
2018-09-04T19:56:58.576Z,16.30
2018-09-04T19:59:25.688Z,16.97
2018-09-04T20:01:52.837Z,16.90
2018-09-04T20:04:19.981Z,16.00
2018-09-04T20:06:47.122Z,16.83
2018-09-04T20:09:14.281Z,16.33
2018-09-04T20:11:41.399Z,16.20
2018-09-04T20:14:08.540Z,16.93
2018-09-04T20:16:35.709Z,16.67
2018-09-04T20:19:02.879Z,16.73
2018-09-04T20:21:30.061Z,17.17
2018-09-04T20:23:57.119Z,16.40
2018-09-04T20:26:24.280Z,16.70
2018-09-04T20:28:51.368Z,16.37
2018-09-04T20:31:18.481Z,17.10
2018-09-04T20:33:45.597Z,15.23
2018-09-04T20:36:12.720Z,16.93
2018-09-04T20:43:33.567Z,16.97
2018-09-04T21:00:58.153Z,16.87
2018-09-04T21:03:36.825Z,17.50
2018-09-04T21:11:14.573Z,17.30
2018-09-04T21:13:41.737Z,17.77
2018-09-04T21:16:08.932Z,17.20
2018-09-04T21:18:36.040Z,18.07
2018-09-04T21:21:03.190Z,18.27
2018-09-04T21:23:30.300Z,18.60
2018-09-04T21:25:57.420Z,19.20
2018-09-04T21:28:24.528Z,19.60
2018-09-04T21:30:51.650Z,19.17
2018-09-04T21:33:18.809Z,18.70
2018-09-04T21:35:45.932Z,19.77
2018-09-04T21:38:13.056Z,18.93
2018-09-04T21:40:40.157Z,19.17
2018-09-04T21:43:07.281Z,19.00
2018-09-04T21:45:34.418Z,18.53
2018-09-04T21:48:01.533Z,19.90
2018-09-04T21:50:28.653Z,18.77
2018-09-04T21:52:55.768Z,18.30
2018-09-04T22:00:21.961Z,20.60
2018-09-04T22:02:49.077Z,20.20
2018-09-04T22:05:16.247Z,19.05
2018-09-04T22:07:43.364Z,20.20
2018-09-04T22:10:10.516Z,18.80
2018-09-04T22:12:37.645Z,19.30
2018-09-04T22:19:58.158Z,21.00
2018-09-04T22:22:25.284Z,19.80
2018-09-04T22:49:20.240Z,21.00
2018-09-04T22:51:47.383Z,21.13
2018-09-04T22:54:14.524Z,20.27
2018-09-04T22:56:41.628Z,21.47
2018-09-04T22:59:08.745Z,21.20
2018-09-04T23:01:35.864Z,21.07
2018-09-04T23:04:02.983Z,21.30
2018-09-04T23:06:30.094Z,23.00
2018-09-04T23:08:57.337Z,21.53
2018-09-04T23:11:24.497Z,22.20
2018-09-04T23:13:51.629Z,23.17
2018-09-04T23:16:18.765Z,22.63
2018-09-04T23:18:45.916Z,21.83
2018-09-04T23:21:13.072Z,22.67
2018-09-04T23:23:40.208Z,22.37
2018-09-04T23:26:07.348Z,24.13
2018-09-04T23:28:34.496Z,23.37
2018-09-04T23:31:01.657Z,24.43
2018-09-04T23:33:29.845Z,25.20
2018-09-04T23:35:57.002Z,23.37
2018-09-04T23:38:24.128Z,22.97
2018-09-04T23:40:51.540Z,26.05
2018-09-04T23:43:19.020Z,26.50
2018-09-04T23:45:46.124Z,26.47
2018-09-04T23:48:13.217Z,25.25
2018-09-04T23:50:40.357Z,27.35
2018-09-04T23:53:07.496Z,26.80
2018-09-04T23:55:34.652Z,25.73
2018-09-04T23:58:01.778Z,28.67
